Newnan, GA

11:22 PM EDT on September 02, 2014 (GMT -0400)
Peachtree City-Falcon | Change Station
CLOSE
Current Station
Airport
Location: Peachtree City,
Elevation: 807 ft
Nearby Weather Stations

Elev 807 ft 33.36 °N, 84.57 °W | Updated 1 hour ago

Clear
Clear
75 °F
Feels Like 75 °F
N
0
Wind Variable Wind from North

Today
High -- | Low -- °F
--% Chance of Precip.
Yesterday
High -- | Low -- °F
Precip. -- in
7:14 AM 8:03 PM
First Quarter, 58% visible
Pressure 30.03 in
Visibility 7.0 miles
Clouds Clear
Dew Point 73 °F
Humidity 94%
Rainfall 0.00 in
Snow Depth Not available.
UV 0 out of 12
Pollen 9.20 out of 12
Ozone Good
PM2.5 Moderate
Flu Activity Not available.
METAR KFFC 030153Z AUTO 00000KT 7SM CLR 24/23 A3004 RMK AO2 LTG DSNT E-S SLP167 T02390228 $

More Conditions Fewer Conditions

Pressure 30.03 in
Visibility 7.0 miles
Clouds Clear
Dew Point 73 °F
Humidity 94%
Rainfall 0.00 in
Snow Depth Not available.
UV 0 out of 12
Pollen 9.20 out of 12
Ozone Good
PM2.5 Moderate
Flu Activity Not available.
METAR KFFC 030153Z AUTO 00000KT 7SM CLR 24/23 A3004 RMK AO2 LTG DSNT E-S SLP167 T02390228 $

More Conditions Fewer Conditions

10-Day Weather Forecast

Almanac

Astronomy

Sep. 02, 2014 Rise Set
Actual Time 7:14 AM EDT 8:03 PM EDT
Civil Twilight 6:48 AM EDT 8:28 PM EDT
Nautical Twilight 6:19 AM EDT 8:58 PM EDT
Astronomical Twilight 5:48 AM EDT 9:28 PM EDT
Moon 2:36 PM EDT (9/2) 12:25 AM EDT (9/2)
Length of Visible Light 13h 39m
Length of Day
12h 49m
Tomorrow will be 1m 59s shorter.
First Quarter, 58% of the Moon is Illuminated
Today
First Quarter
Sep 8
Full
Sep 15
Last Quarter
Sep 24
New
Oct 1
First Quarter

Today's Extremes

State Highs State Lows

Community

WunderPhotos

Upload Photos

1,749,865 photos uploaded!

Nearby

Air Quality

  Air Quality AQ Index Pollutant
Current Moderate
PM2.5
Current Good
OZONE
Tuesday Moderate
OZONE
Tuesday Moderate
PM2.5
Wednesday Moderate
OZONE
Wednesday Moderate
PM2.5

Snow Depth

Station Depth Elevation
No new snow has been reported.

Earthquake Activity

City Distance Mag. Time & Date
No recent earthquake activity has been reported nearby.
Minimum magnitude displayed is 2.5.

Coastal Water Temperatures

Place Temperature
No Stations Reporting

Nearby Weather Stations